createdAt,value
2022-09-20T00:02:16.024Z,8.14
2022-09-20T00:07:17.329Z,8.17
2022-09-20T00:12:18.966Z,8.10
2022-09-20T00:17:20.261Z,8.07
2022-09-20T00:22:21.555Z,8.08
2022-09-20T00:27:23.111Z,8.00
2022-09-20T00:32:24.439Z,7.94
2022-09-20T00:37:25.870Z,7.85
2022-09-20T00:42:28.534Z,7.78
2022-09-20T00:47:32.672Z,7.70
2022-09-20T00:52:35.578Z,7.55
2022-09-20T00:57:38.684Z,7.50
2022-09-20T01:02:45.767Z,7.39
2022-09-20T01:07:48.261Z,7.34
2022-09-20T01:12:51.436Z,7.29
2022-09-20T01:17:54.132Z,7.21
2022-09-20T01:23:21.645Z,7.15
2022-09-20T01:28:23.249Z,7.06
2022-09-20T01:33:33.410Z,7.04
2022-09-20T01:38:40.806Z,7.03
2022-09-20T01:43:53.201Z,6.93
2022-09-20T01:48:58.730Z,6.86
2022-09-20T01:54:00.101Z,6.78
2022-09-20T01:59:23.681Z,6.70
2022-09-20T02:04:25.956Z,6.77
2022-09-20T02:09:42.647Z,6.76
2022-09-20T02:14:47.088Z,6.75
2022-09-20T02:20:01.257Z,6.82
2022-09-20T02:25:23.359Z,6.78
2022-09-20T02:30:25.358Z,6.70
2022-09-20T02:35:41.275Z,6.60
2022-09-20T02:40:54.641Z,6.60
2022-09-20T02:46:08.362Z,6.58
2022-09-20T02:51:18.318Z,6.50
2022-09-20T02:56:27.211Z,6.47
2022-09-20T03:01:40.603Z,6.43
2022-09-20T03:07:00.598Z,6.32
2022-09-20T03:12:14.254Z,6.33
2022-09-20T03:17:22.322Z,6.27
2022-09-20T03:22:26.443Z,6.25
2022-09-20T03:27:32.170Z,6.18
2022-09-20T03:32:55.125Z,6.14
2022-09-20T03:38:10.964Z,6.06
2022-09-20T03:43:26.192Z,6.07
2022-09-20T03:48:37.412Z,6.01
2022-09-20T03:53:53.834Z,5.99
2022-09-20T03:58:55.110Z,6.01
2022-09-20T04:04:15.211Z,6.04
2022-09-20T04:09:19.568Z,5.94
2022-09-20T04:14:27.085Z,5.97
2022-09-20T04:19:38.045Z,6.09
2022-09-20T04:24:53.010Z,6.28
2022-09-20T04:30:00.200Z,6.34
2022-09-20T04:35:31.191Z,6.39
2022-09-20T04:40:55.598Z,6.51
2022-09-20T04:46:22.733Z,6.57
2022-09-20T04:51:51.186Z,6.71
2022-09-20T04:57:05.665Z,6.85
2022-09-20T05:02:09.870Z,6.88
2022-09-20T05:07:20.119Z,6.91
2022-09-20T05:12:27.483Z,7.04
2022-09-20T05:17:49.024Z,6.97
2022-09-20T05:23:04.397Z,6.89
2022-09-20T05:28:14.222Z,6.87
2022-09-20T05:33:29.712Z,7.13
2022-09-20T05:38:47.342Z,7.29
2022-09-20T05:43:53.114Z,7.22
2022-09-20T05:49:13.375Z,7.16
2022-09-20T05:54:28.470Z,7.24
2022-09-20T05:59:45.294Z,7.42
2022-09-20T06:04:59.912Z,7.56
2022-09-20T06:10:07.620Z,7.91
2022-09-20T06:15:18.171Z,8.09
2022-09-20T06:20:42.542Z,8.24
2022-09-20T06:25:43.812Z,8.39
2022-09-20T06:30:47.890Z,8.49
2022-09-20T06:35:55.729Z,8.67
2022-09-20T06:41:19.631Z,8.91
2022-09-20T06:46:22.597Z,8.82
2022-09-20T06:51:26.230Z,8.74
2022-09-20T06:56:32.115Z,8.91
2022-09-20T07:01:33.458Z,9.08
2022-09-20T07:06:34.796Z,9.15
2022-09-20T07:11:36.096Z,9.17
2022-09-20T07:16:38.001Z,9.34
2022-09-20T07:21:39.332Z,9.54
2022-09-20T07:26:54.262Z,9.81
2022-09-20T07:31:56.138Z,10.78
2022-09-20T07:36:59.660Z,11.97
2022-09-20T07:42:01.821Z,13.42
2022-09-20T07:47:03.227Z,14.84
2022-09-20T07:52:04.822Z,17.17
2022-09-20T07:57:06.135Z,16.44
2022-09-20T08:02:07.870Z,16.69
2022-09-20T08:07:09.444Z,16.07
2022-09-20T08:17:32.691Z,15.09
2022-09-20T08:22:34.831Z,14.26
2022-09-20T08:27:37.164Z,13.92
2022-09-20T08:32:38.752Z,13.40
2022-09-20T08:37:40.576Z,14.62
2022-09-20T08:42:44.797Z,15.37
2022-09-20T08:48:06.429Z,19.82
2022-09-20T08:53:12.388Z,17.67
2022-09-20T08:58:14.592Z,19.51
2022-09-20T09:03:19.217Z,15.65
2022-09-20T09:08:24.066Z,14.59
2022-09-20T09:13:31.788Z,14.06
2022-09-20T09:18:35.475Z,14.35
2022-09-20T09:23:49.220Z,13.97
2022-09-20T09:29:09.206Z,14.20
2022-09-20T09:34:38.894Z,13.95
2022-09-20T09:39:40.664Z,14.12
2022-09-20T09:44:41.975Z,14.31
2022-09-20T09:50:00.139Z,16.96
2022-09-20T09:55:05.826Z,22.29
2022-09-20T10:00:18.526Z,22.39
2022-09-20T10:05:40.366Z,18.88
2022-09-20T10:10:57.179Z,17.01
2022-09-20T10:16:07.826Z,15.94
2022-09-20T10:21:15.069Z,15.41
2022-09-20T10:26:22.131Z,15.29
2022-09-20T10:31:25.849Z,15.55
2022-09-20T10:36:38.300Z,15.42
2022-09-20T10:42:04.936Z,17.28
2022-09-20T10:47:20.162Z,17.20
2022-09-20T10:52:28.910Z,16.55
2022-09-20T10:57:56.017Z,17.36
2022-09-20T11:03:23.473Z,17.98
2022-09-20T11:08:28.439Z,17.17
2022-09-20T11:13:48.357Z,16.30
2022-09-20T11:18:58.901Z,15.54
2022-09-20T11:24:21.199Z,15.28
2022-09-20T11:29:22.470Z,15.12
2022-09-20T11:34:42.317Z,14.86
2022-09-20T11:40:00.793Z,14.38
2022-09-20T11:45:02.982Z,14.18
2022-09-20T11:50:04.326Z,13.95
2022-09-20T11:55:05.628Z,14.03
2022-09-20T12:00:10.273Z,13.80
2022-09-20T12:05:27.075Z,13.74
2022-09-20T12:10:30.586Z,13.52
2022-09-20T12:15:39.239Z,13.81
2022-09-20T12:20:44.726Z,14.16
2022-09-20T12:26:01.072Z,14.68
2022-09-20T12:31:21.338Z,15.51
2022-09-20T12:36:23.062Z,15.89
2022-09-20T12:41:28.626Z,16.19
2022-09-20T12:46:53.723Z,16.03
2022-09-20T12:52:13.934Z,15.67
2022-09-20T12:57:17.783Z,15.16
2022-09-20T13:02:42.243Z,15.09
2022-09-20T13:07:46.915Z,14.66
2022-09-20T13:12:53.869Z,14.41
2022-09-20T13:17:58.188Z,14.50
2022-09-20T13:23:00.568Z,14.67
2022-09-20T13:28:10.333Z,14.71
2022-09-20T13:33:16.400Z,14.64
2022-09-20T13:38:22.578Z,14.70
2022-09-20T13:43:28.347Z,14.82
2022-09-20T13:48:30.538Z,14.91
2022-09-20T13:53:47.106Z,14.79
2022-09-20T13:58:49.609Z,15.06
2022-09-20T14:03:51.015Z,15.12
2022-09-20T14:08:52.585Z,16.45
2022-09-20T14:13:58.302Z,17.22
2022-09-20T14:19:00.117Z,18.25
2022-09-20T14:24:05.571Z,17.44
2022-09-20T14:29:25.779Z,16.84
2022-09-20T14:34:27.472Z,16.77
2022-09-20T14:39:28.831Z,16.59
2022-09-20T14:44:33.788Z,15.55
2022-09-20T14:49:40.412Z,15.34
2022-09-20T14:54:41.768Z,15.40
2022-09-20T14:59:43.169Z,15.29
2022-09-20T15:04:55.886Z,15.67
2022-09-20T15:09:57.203Z,15.05
2022-09-20T15:14:58.509Z,14.97
2022-09-20T15:19:59.818Z,14.65
2022-09-20T15:25:02.114Z,14.63
2022-09-20T15:30:03.617Z,14.51
2022-09-20T15:35:05.372Z,14.41
2022-09-20T15:40:08.052Z,14.22
2022-09-20T15:45:10.053Z,14.24
2022-09-20T15:50:11.370Z,14.12
2022-09-20T15:55:12.906Z,13.91
2022-09-20T16:00:15.641Z,13.90
2022-09-20T16:05:17.068Z,13.99
2022-09-20T16:10:18.626Z,13.97
2022-09-20T16:15:21.702Z,13.93
2022-09-20T16:20:23.497Z,13.59
2022-09-20T16:25:24.848Z,13.37
2022-09-20T16:30:26.179Z,12.98
2022-09-20T16:35:27.500Z,12.80
2022-09-20T16:40:28.878Z,12.62
2022-09-20T16:45:30.245Z,12.44
2022-09-20T16:50:31.588Z,12.24
2022-09-20T16:55:33.722Z,12.08
2022-09-20T17:00:35.182Z,12.01
2022-09-20T17:05:37.083Z,11.93
2022-09-20T17:10:38.404Z,11.89
2022-09-20T17:15:40.008Z,11.68
2022-09-20T17:20:41.716Z,11.42
2022-09-20T17:25:46.205Z,11.33
2022-09-20T17:30:47.507Z,11.10
2022-09-20T17:35:51.997Z,10.97
2022-09-20T17:41:03.691Z,10.79
2022-09-20T17:46:06.189Z,10.80
2022-09-20T17:51:12.386Z,10.85
2022-09-20T17:56:14.169Z,10.95
2022-09-20T18:01:18.349Z,10.99
2022-09-20T18:06:21.047Z,11.21
2022-09-20T18:11:23.468Z,11.09
2022-09-20T18:16:24.868Z,11.07
2022-09-20T18:21:27.126Z,11.07
2022-09-20T18:26:30.273Z,11.18
2022-09-20T18:31:36.068Z,11.21
2022-09-20T18:36:39.335Z,11.29
2022-09-20T18:41:42.703Z,11.27
2022-09-20T18:46:44.358Z,11.23
2022-09-20T18:51:47.146Z,11.24
2022-09-20T18:56:50.273Z,11.26
2022-09-20T19:01:54.999Z,11.29
2022-09-20T19:07:14.863Z,11.19
2022-09-20T19:12:28.463Z,11.07
2022-09-20T19:17:42.039Z,10.99
2022-09-20T19:22:53.782Z,11.01
2022-09-20T19:27:55.177Z,10.82
2022-09-20T19:32:56.579Z,10.72
2022-09-20T19:37:58.142Z,10.56
2022-09-20T19:43:18.270Z,10.34
2022-09-20T19:48:24.658Z,10.14
2022-09-20T19:53:28.785Z,9.94
2022-09-20T19:58:30.284Z,9.79
2022-09-20T20:03:31.724Z,9.60
2022-09-20T20:08:38.646Z,9.40
2022-09-20T20:14:07.035Z,9.29
2022-09-20T20:19:26.502Z,9.08
2022-09-20T20:24:32.737Z,8.94
2022-09-20T20:29:34.048Z,8.90
2022-09-20T20:34:37.160Z,9.03
2022-09-20T20:39:38.490Z,9.09
2022-09-20T20:44:39.996Z,9.21
2022-09-20T20:49:42.264Z,9.20
2022-09-20T20:54:43.636Z,9.16
2022-09-20T20:59:45.257Z,9.00
2022-09-20T21:04:46.735Z,8.96
2022-09-20T21:09:48.042Z,8.99
2022-09-20T21:14:49.363Z,9.05
2022-09-20T21:19:50.785Z,8.98
2022-09-20T21:24:52.305Z,8.95
2022-09-20T21:29:54.439Z,8.95
2022-09-20T21:34:55.737Z,8.97
2022-09-20T21:39:57.039Z,8.97
2022-09-20T21:44:58.348Z,8.92
2022-09-20T21:50:00.152Z,8.73
2022-09-20T21:55:01.459Z,8.49
2022-09-20T22:00:02.931Z,8.28
2022-09-20T22:05:04.395Z,8.12
2022-09-20T22:10:05.842Z,8.04
2022-09-20T22:15:07.547Z,7.96
2022-09-20T22:20:09.486Z,7.86
2022-09-20T22:25:10.781Z,7.77
2022-09-20T22:30:12.344Z,7.56
2022-09-20T22:35:13.684Z,7.43
2022-09-20T22:40:15.480Z,7.46
2022-09-20T22:45:16.808Z,7.41
2022-09-20T22:50:18.118Z,7.36
2022-09-20T22:55:19.411Z,7.27
2022-09-20T23:00:20.721Z,7.23
2022-09-20T23:05:22.398Z,7.08
2022-09-20T23:10:23.807Z,7.01
2022-09-20T23:15:25.128Z,6.90
2022-09-20T23:20:26.478Z,6.83
2022-09-20T23:25:28.056Z,6.83
2022-09-20T23:30:31.931Z,6.69
2022-09-20T23:35:34.184Z,6.57
2022-09-20T23:40:35.551Z,6.51
2022-09-20T23:45:36.902Z,6.52
2022-09-20T23:50:38.222Z,6.44
2022-09-20T23:55:39.532Z,6.49
